sensor_id;sensor_type;location;lat;lon;timestamp;P1;durP1;ratioP1;P2;durP2;ratioP2
17596;SDS011;8917;50.942;6.946;2023-04-19T00:01:51;6.10;;;5.50;;
17596;SDS011;8917;50.942;6.946;2023-04-19T00:04:18;7.00;;;4.97;;
17596;SDS011;8917;50.942;6.946;2023-04-19T00:06:45;7.13;;;5.00;;
17596;SDS011;8917;50.942;6.946;2023-04-19T00:09:13;6.27;;;5.27;;
17596;SDS011;8917;50.942;6.946;2023-04-19T00:11:40;5.47;;;4.60;;
17596;SDS011;8917;50.942;6.946;2023-04-19T00:14:07;7.13;;;5.17;;
17596;SDS011;8917;50.942;6.946;2023-04-19T00:16:35;5.93;;;5.33;;
17596;SDS011;8917;50.942;6.946;2023-04-19T00:19:03;5.57;;;4.90;;
17596;SDS011;8917;50.942;6.946;2023-04-19T00:21:30;6.77;;;5.00;;
17596;SDS011;8917;50.942;6.946;2023-04-19T00:23:58;5.63;;;5.03;;
17596;SDS011;8917;50.942;6.946;2023-04-19T00:26:25;5.03;;;4.53;;
17596;SDS011;8917;50.942;6.946;2023-04-19T00:28:55;5.87;;;5.00;;
17596;SDS011;8917;50.942;6.946;2023-04-19T00:31:22;6.60;;;4.80;;
17596;SDS011;8917;50.942;6.946;2023-04-19T00:33:51;5.40;;;4.73;;
17596;SDS011;8917;50.942;6.946;2023-04-19T00:36:18;6.80;;;4.90;;
17596;SDS011;8917;50.942;6.946;2023-04-19T00:38:45;5.27;;;4.77;;
17596;SDS011;8917;50.942;6.946;2023-04-19T00:41:13;5.70;;;5.20;;
17596;SDS011;8917;50.942;6.946;2023-04-19T00:43:40;6.47;;;4.53;;
17596;SDS011;8917;50.942;6.946;2023-04-19T00:46:07;6.77;;;4.73;;
17596;SDS011;8917;50.942;6.946;2023-04-19T00:48:34;5.47;;;4.60;;
17596;SDS011;8917;50.942;6.946;2023-04-19T00:51:03;5.30;;;4.80;;
17596;SDS011;8917;50.942;6.946;2023-04-19T00:53:30;5.63;;;5.03;;
17596;SDS011;8917;50.942;6.946;2023-04-19T00:55:58;5.80;;;5.17;;
17596;SDS011;8917;50.942;6.946;2023-04-19T00:58:28;5.53;;;5.03;;
17596;SDS011;8917;50.942;6.946;2023-04-19T01:00:56;5.47;;;4.90;;
17596;SDS011;8917;50.942;6.946;2023-04-19T01:03:23;5.37;;;4.87;;
17596;SDS011;8917;50.942;6.946;2023-04-19T01:05:51;5.27;;;4.60;;
17596;SDS011;8917;50.942;6.946;2023-04-19T01:08:19;6.23;;;4.73;;
17596;SDS011;8917;50.942;6.946;2023-04-19T01:10:47;5.00;;;4.53;;
17596;SDS011;8917;50.942;6.946;2023-04-19T01:13:14;6.53;;;5.27;;
17596;SDS011;8917;50.942;6.946;2023-04-19T01:15:41;5.13;;;4.60;;
17596;SDS011;8917;50.942;6.946;2023-04-19T01:18:08;5.67;;;4.30;;
17596;SDS011;8917;50.942;6.946;2023-04-19T01:20:36;5.30;;;4.40;;
17596;SDS011;8917;50.942;6.946;2023-04-19T01:23:05;5.17;;;4.50;;
17596;SDS011;8917;50.942;6.946;2023-04-19T01:25:35;5.20;;;4.30;;
17596;SDS011;8917;50.942;6.946;2023-04-19T01:28:03;4.40;;;4.00;;
17596;SDS011;8917;50.942;6.946;2023-04-19T01:30:30;5.57;;;4.57;;
17596;SDS011;8917;50.942;6.946;2023-04-19T01:32:57;5.67;;;4.40;;
17596;SDS011;8917;50.942;6.946;2023-04-19T01:35:25;7.00;;;4.53;;
17596;SDS011;8917;50.942;6.946;2023-04-19T01:37:52;5.20;;;4.70;;
17596;SDS011;8917;50.942;6.946;2023-04-19T01:40:22;4.43;;;4.03;;
17596;SDS011;8917;50.942;6.946;2023-04-19T01:42:50;5.40;;;4.17;;
17596;SDS011;8917;50.942;6.946;2023-04-19T01:45:17;4.87;;;4.23;;
17596;SDS011;8917;50.942;6.946;2023-04-19T01:47:44;5.70;;;4.40;;
17596;SDS011;8917;50.942;6.946;2023-04-19T01:50:11;5.97;;;4.50;;
17596;SDS011;8917;50.942;6.946;2023-04-19T01:52:38;5.70;;;4.50;;
17596;SDS011;8917;50.942;6.946;2023-04-19T01:55:06;6.20;;;4.80;;
17596;SDS011;8917;50.942;6.946;2023-04-19T01:57:34;7.20;;;4.50;;
17596;SDS011;8917;50.942;6.946;2023-04-19T02:00:02;4.87;;;4.37;;
17596;SDS011;8917;50.942;6.946;2023-04-19T02:02:29;5.93;;;4.50;;
17596;SDS011;8917;50.942;6.946;2023-04-19T02:04:56;4.70;;;4.30;;
17596;SDS011;8917;50.942;6.946;2023-04-19T02:07:23;6.23;;;4.63;;
17596;SDS011;8917;50.942;6.946;2023-04-19T02:09:50;5.63;;;5.00;;
17596;SDS011;8917;50.942;6.946;2023-04-19T02:12:20;6.50;;;5.90;;
17596;SDS011;8917;50.942;6.946;2023-04-19T02:14:48;6.53;;;5.83;;
17596;SDS011;8917;50.942;6.946;2023-04-19T02:17:16;8.87;;;6.17;;
17596;SDS011;8917;50.942;6.946;2023-04-19T02:19:43;7.37;;;6.17;;
17596;SDS011;8917;50.942;6.946;2023-04-19T02:22:10;9.40;;;5.83;;
17596;SDS011;8917;50.942;6.946;2023-04-19T02:24:37;7.33;;;5.93;;
17596;SDS011;8917;50.942;6.946;2023-04-19T02:27:04;6.90;;;6.20;;
17596;SDS011;8917;50.942;6.946;2023-04-19T02:29:31;6.93;;;6.13;;
17596;SDS011;8917;50.942;6.946;2023-04-19T02:32:00;6.63;;;6.03;;
17596;SDS011;8917;50.942;6.946;2023-04-19T02:34:30;6.73;;;6.03;;
17596;SDS011;8917;50.942;6.946;2023-04-19T02:36:57;6.23;;;5.63;;
17596;SDS011;8917;50.942;6.946;2023-04-19T02:39:24;7.20;;;5.77;;
17596;SDS011;8917;50.942;6.946;2023-04-19T02:41:52;8.00;;;5.97;;
17596;SDS011;8917;50.942;6.946;2023-04-19T02:44:19;6.27;;;5.67;;
17596;SDS011;8917;50.942;6.946;2023-04-19T02:46:47;6.03;;;5.43;;
17596;SDS011;8917;50.942;6.946;2023-04-19T02:49:15;6.97;;;5.60;;
17596;SDS011;8917;50.942;6.946;2023-04-19T02:51:43;6.83;;;5.87;;
17596;SDS011;8917;50.942;6.946;2023-04-19T02:54:10;7.87;;;5.90;;
17596;SDS011;8917;50.942;6.946;2023-04-19T02:56:37;7.37;;;6.47;;
17596;SDS011;8917;50.942;6.946;2023-04-19T02:59:04;7.73;;;6.93;;
17596;SDS011;8917;50.942;6.946;2023-04-19T03:01:32;8.33;;;6.93;;
17596;SDS011;8917;50.942;6.946;2023-04-19T03:03:59;8.97;;;7.63;;
17596;SDS011;8917;50.942;6.946;2023-04-19T03:06:27;8.70;;;7.00;;
17596;SDS011;8917;50.942;6.946;2023-04-19T03:08:55;10.70;;;8.27;;
17596;SDS011;8917;50.942;6.946;2023-04-19T03:11:22;10.17;;;8.37;;
17596;SDS011;8917;50.942;6.946;2023-04-19T03:13:49;9.70;;;7.90;;
17596;SDS011;8917;50.942;6.946;2023-04-19T03:16:17;10.00;;;8.53;;
17596;SDS011;8917;50.942;6.946;2023-04-19T03:18:44;9.50;;;8.50;;
17596;SDS011;8917;50.942;6.946;2023-04-19T03:21:11;12.17;;;8.10;;
17596;SDS011;8917;50.942;6.946;2023-04-19T03:23:40;10.83;;;8.10;;
17596;SDS011;8917;50.942;6.946;2023-04-19T03:26:07;8.97;;;7.83;;
17596;SDS011;8917;50.942;6.946;2023-04-19T03:28:34;9.57;;;8.57;;
17596;SDS011;8917;50.942;6.946;2023-04-19T03:31:02;9.47;;;8.03;;
17596;SDS011;8917;50.942;6.946;2023-04-19T03:33:29;8.77;;;7.67;;
17596;SDS011;8917;50.942;6.946;2023-04-19T03:35:56;11.67;;;8.13;;
17596;SDS011;8917;50.942;6.946;2023-04-19T03:38:23;9.60;;;7.97;;
17596;SDS011;8917;50.942;6.946;2023-04-19T03:40:52;9.23;;;8.07;;
17596;SDS011;8917;50.942;6.946;2023-04-19T03:43:20;9.10;;;7.33;;
17596;SDS011;8917;50.942;6.946;2023-04-19T03:45:48;8.10;;;7.30;;
17596;SDS011;8917;50.942;6.946;2023-04-19T03:48:15;7.97;;;6.63;;
17596;SDS011;8917;50.942;6.946;2023-04-19T03:50:42;7.70;;;7.00;;
17596;SDS011;8917;50.942;6.946;2023-04-19T03:53:10;8.00;;;6.83;;
17596;SDS011;8917;50.942;6.946;2023-04-19T03:55:37;8.87;;;7.40;;
17596;SDS011;8917;50.942;6.946;2023-04-19T03:58:05;7.60;;;6.43;;
17596;SDS011;8917;50.942;6.946;2023-04-19T04:00:34;7.93;;;6.80;;
17596;SDS011;8917;50.942;6.946;2023-04-19T04:03:02;7.57;;;6.77;;
17596;SDS011;8917;50.942;6.946;2023-04-19T04:05:29;8.40;;;7.20;;
17596;SDS011;8917;50.942;6.946;2023-04-19T04:07:56;7.87;;;6.50;;
17596;SDS011;8917;50.942;6.946;2023-04-19T04:10:23;8.27;;;6.77;;
17596;SDS011;8917;50.942;6.946;2023-04-19T04:12:50;7.67;;;6.87;;
17596;SDS011;8917;50.942;6.946;2023-04-19T04:15:19;8.37;;;6.43;;
17596;SDS011;8917;50.942;6.946;2023-04-19T04:17:46;8.60;;;7.47;;
17596;SDS011;8917;50.942;6.946;2023-04-19T04:20:13;7.93;;;7.13;;
17596;SDS011;8917;50.942;6.946;2023-04-19T04:22:41;8.20;;;7.07;;
17596;SDS011;8917;50.942;6.946;2023-04-19T04:25:10;7.70;;;6.90;;
17596;SDS011;8917;50.942;6.946;2023-04-19T04:27:37;9.00;;;7.77;;
17596;SDS011;8917;50.942;6.946;2023-04-19T04:30:08;7.80;;;7.00;;
17596;SDS011;8917;50.942;6.946;2023-04-19T04:32:37;8.40;;;7.00;;
17596;SDS011;8917;50.942;6.946;2023-04-19T04:35:05;10.70;;;7.73;;
17596;SDS011;8917;50.942;6.946;2023-04-19T04:37:33;9.57;;;7.63;;
17596;SDS011;8917;50.942;6.946;2023-04-19T04:40:00;8.07;;;7.20;;
17596;SDS011;8917;50.942;6.946;2023-04-19T04:42:29;10.43;;;8.30;;
17596;SDS011;8917;50.942;6.946;2023-04-19T04:44:56;8.87;;;7.57;;
17596;SDS011;8917;50.942;6.946;2023-04-19T04:47:29;7.50;;;6.70;;
17596;SDS011;8917;50.942;6.946;2023-04-19T04:49:57;8.03;;;7.23;;
17596;SDS011;8917;50.942;6.946;2023-04-19T04:52:25;8.43;;;7.37;;
17596;SDS011;8917;50.942;6.946;2023-04-19T04:54:52;10.57;;;7.97;;
17596;SDS011;8917;50.942;6.946;2023-04-19T04:57:19;8.50;;;7.70;;
17596;SDS011;8917;50.942;6.946;2023-04-19T04:59:46;9.57;;;7.10;;
17596;SDS011;8917;50.942;6.946;2023-04-19T05:02:14;10.27;;;7.63;;
17596;SDS011;8917;50.942;6.946;2023-04-19T05:04:41;8.33;;;7.33;;
17596;SDS011;8917;50.942;6.946;2023-04-19T05:07:10;10.13;;;7.27;;
17596;SDS011;8917;50.942;6.946;2023-04-19T05:09:37;10.87;;;7.87;;
17596;SDS011;8917;50.942;6.946;2023-04-19T05:12:04;11.17;;;8.47;;
17596;SDS011;8917;50.942;6.946;2023-04-19T05:14:31;8.97;;;7.70;;
17596;SDS011;8917;50.942;6.946;2023-04-19T05:16:59;8.47;;;7.57;;
17596;SDS011;8917;50.942;6.946;2023-04-19T05:19:27;10.00;;;8.47;;
17596;SDS011;8917;50.942;6.946;2023-04-19T05:21:54;11.80;;;8.23;;
17596;SDS011;8917;50.942;6.946;2023-04-19T05:24:22;29.17;;;9.73;;
17596;SDS011;8917;50.942;6.946;2023-04-19T05:26:50;10.07;;;8.13;;
17596;SDS011;8917;50.942;6.946;2023-04-19T05:29:17;9.70;;;7.93;;
17596;SDS011;8917;50.942;6.946;2023-04-19T05:31:44;9.20;;;7.47;;
17596;SDS011;8917;50.942;6.946;2023-04-19T05:34:11;11.37;;;8.07;;
17596;SDS011;8917;50.942;6.946;2023-04-19T05:36:38;10.23;;;8.03;;
17596;SDS011;8917;50.942;6.946;2023-04-19T05:39:05;12.53;;;7.97;;
17596;SDS011;8917;50.942;6.946;2023-04-19T05:41:34;8.73;;;7.83;;
17596;SDS011;8917;50.942;6.946;2023-04-19T05:44:02;10.10;;;8.50;;
17596;SDS011;8917;50.942;6.946;2023-04-19T05:46:29;13.67;;;8.97;;
17596;SDS011;8917;50.942;6.946;2023-04-19T05:48:56;9.33;;;8.10;;
17596;SDS011;8917;50.942;6.946;2023-04-19T05:51:23;9.87;;;8.17;;
17596;SDS011;8917;50.942;6.946;2023-04-19T05:53:52;9.30;;;8.20;;
17596;SDS011;8917;50.942;6.946;2023-04-19T05:56:19;11.20;;;8.67;;
17596;SDS011;8917;50.942;6.946;2023-04-19T05:58:47;11.17;;;8.03;;
17596;SDS011;8917;50.942;6.946;2023-04-19T06:01:15;9.63;;;7.83;;
17596;SDS011;8917;50.942;6.946;2023-04-19T06:03:42;9.13;;;8.10;;
17596;SDS011;8917;50.942;6.946;2023-04-19T06:06:09;12.10;;;9.27;;
17596;SDS011;8917;50.942;6.946;2023-04-19T06:08:36;13.87;;;9.33;;
17596;SDS011;8917;50.942;6.946;2023-04-19T06:11:04;10.57;;;8.17;;
17596;SDS011;8917;50.942;6.946;2023-04-19T06:13:31;8.93;;;8.03;;
17596;SDS011;8917;50.942;6.946;2023-04-19T06:16:00;9.63;;;8.63;;
17596;SDS011;8917;50.942;6.946;2023-04-19T06:18:27;8.93;;;8.03;;
17596;SDS011;8917;50.942;6.946;2023-04-19T06:20:54;10.43;;;8.67;;
17596;SDS011;8917;50.942;6.946;2023-04-19T06:23:21;8.50;;;7.60;;
17596;SDS011;8917;50.942;6.946;2023-04-19T06:25:49;9.30;;;7.40;;
17596;SDS011;8917;50.942;6.946;2023-04-19T06:28:16;9.07;;;7.73;;
17596;SDS011;8917;50.942;6.946;2023-04-19T06:30:44;16.67;;;9.87;;
17596;SDS011;8917;50.942;6.946;2023-04-19T06:33:12;9.70;;;7.27;;
17596;SDS011;8917;50.942;6.946;2023-04-19T06:35:39;8.57;;;7.30;;
17596;SDS011;8917;50.942;6.946;2023-04-19T06:38:06;8.67;;;7.00;;
17596;SDS011;8917;50.942;6.946;2023-04-19T06:40:34;9.13;;;7.53;;
17596;SDS011;8917;50.942;6.946;2023-04-19T06:43:01;21.03;;;15.73;;
17596;SDS011;8917;50.942;6.946;2023-04-19T06:45:28;9.53;;;8.13;;
17596;SDS011;8917;50.942;6.946;2023-04-19T06:47:56;8.27;;;6.20;;
17596;SDS011;8917;50.942;6.946;2023-04-19T06:50:24;7.77;;;6.73;;
17596;SDS011;8917;50.942;6.946;2023-04-19T06:52:52;7.33;;;6.60;;
17596;SDS011;8917;50.942;6.946;2023-04-19T06:55:20;8.73;;;6.83;;
17596;SDS011;8917;50.942;6.946;2023-04-19T06:57:47;8.50;;;7.00;;
17596;SDS011;8917;50.942;6.946;2023-04-19T07:00:14;7.40;;;5.57;;
17596;SDS011;8917;50.942;6.946;2023-04-19T07:02:41;7.13;;;5.93;;
17596;SDS011;8917;50.942;6.946;2023-04-19T07:05:08;6.67;;;5.83;;
17596;SDS011;8917;50.942;6.946;2023-04-19T07:07:38;8.77;;;6.17;;
17596;SDS011;8917;50.942;6.946;2023-04-19T07:10:06;6.67;;;5.73;;
17596;SDS011;8917;50.942;6.946;2023-04-19T07:12:33;8.77;;;6.53;;
17596;SDS011;8917;50.942;6.946;2023-04-19T07:15:02;7.10;;;5.83;;
17596;SDS011;8917;50.942;6.946;2023-04-19T07:17:29;6.33;;;5.37;;
17596;SDS011;8917;50.942;6.946;2023-04-19T07:19:56;6.10;;;5.00;;
17596;SDS011;8917;50.942;6.946;2023-04-19T07:22:24;5.43;;;4.87;;
17596;SDS011;8917;50.942;6.946;2023-04-19T07:24:53;5.87;;;5.07;;
17596;SDS011;8917;50.942;6.946;2023-04-19T07:27:20;5.87;;;5.27;;
17596;SDS011;8917;50.942;6.946;2023-04-19T07:29:47;7.77;;;6.50;;
17596;SDS011;8917;50.942;6.946;2023-04-19T07:32:15;6.77;;;5.73;;
17596;SDS011;8917;50.942;6.946;2023-04-19T07:34:42;8.60;;;6.27;;
17596;SDS011;8917;50.942;6.946;2023-04-19T07:37:10;6.10;;;5.17;;
17596;SDS011;8917;50.942;6.946;2023-04-19T07:39:37;6.10;;;5.30;;
17596;SDS011;8917;50.942;6.946;2023-04-19T07:42:06;6.50;;;5.13;;
17596;SDS011;8917;50.942;6.946;2023-04-19T07:44:33;6.73;;;4.83;;
17596;SDS011;8917;50.942;6.946;2023-04-19T07:47:00;5.37;;;4.70;;
17596;SDS011;8917;50.942;6.946;2023-04-19T07:49:27;5.60;;;4.83;;
17596;SDS011;8917;50.942;6.946;2023-04-19T07:51:58;4.97;;;4.23;;
17596;SDS011;8917;50.942;6.946;2023-04-19T07:54:26;5.63;;;4.37;;
17596;SDS011;8917;50.942;6.946;2023-04-19T07:56:54;4.50;;;4.10;;
17596;SDS011;8917;50.942;6.946;2023-04-19T07:59:24;5.83;;;4.17;;
17596;SDS011;8917;50.942;6.946;2023-04-19T08:01:51;5.00;;;4.47;;
17596;SDS011;8917;50.942;6.946;2023-04-19T08:04:18;5.40;;;4.90;;
17596;SDS011;8917;50.942;6.946;2023-04-19T08:06:46;11.90;;;9.20;;
17596;SDS011;8917;50.942;6.946;2023-04-19T08:09:14;6.27;;;4.73;;
17596;SDS011;8917;50.942;6.946;2023-04-19T08:11:41;5.93;;;4.37;;
17596;SDS011;8917;50.942;6.946;2023-04-19T08:14:08;4.93;;;4.47;;
17596;SDS011;8917;50.942;6.946;2023-04-19T08:16:37;5.37;;;4.77;;
17596;SDS011;8917;50.942;6.946;2023-04-19T08:19:05;7.17;;;4.90;;
17596;SDS011;8917;50.942;6.946;2023-04-19T08:21:32;6.43;;;4.80;;
17596;SDS011;8917;50.942;6.946;2023-04-19T08:24:00;5.30;;;4.50;;
17596;SDS011;8917;50.942;6.946;2023-04-19T08:26:27;6.53;;;4.80;;
17596;SDS011;8917;50.942;6.946;2023-04-19T08:28:54;5.10;;;4.60;;
17596;SDS011;8917;50.942;6.946;2023-04-19T08:31:21;5.63;;;4.70;;
17596;SDS011;8917;50.942;6.946;2023-04-19T08:33:50;6.87;;;4.77;;
17596;SDS011;8917;50.942;6.946;2023-04-19T08:36:18;5.60;;;4.47;;
17596;SDS011;8917;50.942;6.946;2023-04-19T08:38:45;6.03;;;4.87;;
17596;SDS011;8917;50.942;6.946;2023-04-19T08:41:12;8.63;;;4.83;;
17596;SDS011;8917;50.942;6.946;2023-04-19T08:43:40;6.43;;;5.03;;
17596;SDS011;8917;50.942;6.946;2023-04-19T08:46:09;4.70;;;4.20;;
17596;SDS011;8917;50.942;6.946;2023-04-19T08:48:37;5.43;;;4.73;;
17596;SDS011;8917;50.942;6.946;2023-04-19T08:51:07;12.73;;;5.70;;
17596;SDS011;8917;50.942;6.946;2023-04-19T08:53:36;8.77;;;4.30;;
17596;SDS011;8917;50.942;6.946;2023-04-19T08:56:04;4.40;;;3.97;;
17596;SDS011;8917;50.942;6.946;2023-04-19T08:58:33;4.70;;;4.30;;
17596;SDS011;8917;50.942;6.946;2023-04-19T09:01:01;7.57;;;4.40;;
17596;SDS011;8917;50.942;6.946;2023-04-19T09:03:29;4.57;;;4.17;;
17596;SDS011;8917;50.942;6.946;2023-04-19T09:05:57;5.50;;;4.70;;
17596;SDS011;8917;50.942;6.946;2023-04-19T09:08:28;4.83;;;4.30;;
17596;SDS011;8917;50.942;6.946;2023-04-19T09:10:56;5.17;;;4.63;;
17596;SDS011;8917;50.942;6.946;2023-04-19T09:13:23;6.37;;;4.73;;
17596;SDS011;8917;50.942;6.946;2023-04-19T09:15:50;5.47;;;4.30;;
17596;SDS011;8917;50.942;6.946;2023-04-19T09:18:18;5.13;;;4.53;;
17596;SDS011;8917;50.942;6.946;2023-04-19T09:20:46;4.97;;;4.50;;
17596;SDS011;8917;50.942;6.946;2023-04-19T09:23:14;4.90;;;4.37;;
17596;SDS011;8917;50.942;6.946;2023-04-19T09:25:51;5.67;;;4.00;;
17596;SDS011;8917;50.942;6.946;2023-04-19T09:28:18;4.60;;;3.97;;
17596;SDS011;8917;50.942;6.946;2023-04-19T09:30:46;6.47;;;4.27;;
17596;SDS011;8917;50.942;6.946;2023-04-19T09:33:13;4.63;;;3.60;;
17596;SDS011;8917;50.942;6.946;2023-04-19T09:35:57;4.77;;;3.33;;
17596;SDS011;8917;50.942;6.946;2023-04-19T09:38:24;4.67;;;4.27;;
17596;SDS011;8917;50.942;6.946;2023-04-19T09:40:53;5.97;;;5.07;;
17596;SDS011;8917;50.942;6.946;2023-04-19T09:43:31;6.23;;;4.87;;
17596;SDS011;8917;50.942;6.946;2023-04-19T09:45:58;5.67;;;3.67;;
17596;SDS011;8917;50.942;6.946;2023-04-19T09:48:26;7.33;;;4.03;;
17596;SDS011;8917;50.942;6.946;2023-04-19T09:50:53;4.60;;;3.50;;
17596;SDS011;8917;50.942;6.946;2023-04-19T09:53:21;5.03;;;3.50;;
17596;SDS011;8917;50.942;6.946;2023-04-19T09:55:48;5.40;;;3.97;;
17596;SDS011;8917;50.942;6.946;2023-04-19T09:58:17;4.67;;;3.40;;
17596;SDS011;8917;50.942;6.946;2023-04-19T10:00:45;4.60;;;3.33;;
17596;SDS011;8917;50.942;6.946;2023-04-19T10:03:13;7.83;;;3.40;;
17596;SDS011;8917;50.942;6.946;2023-04-19T10:05:41;9.73;;;3.90;;
17596;SDS011;8917;50.942;6.946;2023-04-19T10:08:09;4.60;;;3.40;;
17596;SDS011;8917;50.942;6.946;2023-04-19T10:10:37;4.70;;;3.50;;
17596;SDS011;8917;50.942;6.946;2023-04-19T10:13:06;6.33;;;3.30;;
17596;SDS011;8917;50.942;6.946;2023-04-19T10:15:36;4.50;;;3.10;;
17596;SDS011;8917;50.942;6.946;2023-04-19T10:18:04;5.00;;;4.50;;
17596;SDS011;8917;50.942;6.946;2023-04-19T10:20:32;5.03;;;3.40;;
17596;SDS011;8917;50.942;6.946;2023-04-19T10:23:00;7.60;;;4.50;;
17596;SDS011;8917;50.942;6.946;2023-04-19T10:25:29;4.53;;;3.80;;
17596;SDS011;8917;50.942;6.946;2023-04-19T10:27:57;4.90;;;3.17;;
17596;SDS011;8917;50.942;6.946;2023-04-19T10:30:24;4.53;;;3.33;;
17596;SDS011;8917;50.942;6.946;2023-04-19T10:32:54;3.90;;;3.37;;
17596;SDS011;8917;50.942;6.946;2023-04-19T10:35:23;4.57;;;3.50;;
17596;SDS011;8917;50.942;6.946;2023-04-19T10:38:04;5.57;;;3.17;;
17596;SDS011;8917;50.942;6.946;2023-04-19T10:43:18;5.13;;;3.67;;
17596;SDS011;8917;50.942;6.946;2023-04-19T10:45:45;4.33;;;3.90;;
17596;SDS011;8917;50.942;6.946;2023-04-19T10:48:33;5.40;;;3.60;;
17596;SDS011;8917;50.942;6.946;2023-04-19T10:51:03;4.83;;;3.40;;
17596;SDS011;8917;50.942;6.946;2023-04-19T10:53:43;6.87;;;3.30;;
17596;SDS011;8917;50.942;6.946;2023-04-19T10:56:11;4.20;;;3.47;;
17596;SDS011;8917;50.942;6.946;2023-04-19T11:01:33;4.83;;;3.33;;
17596;SDS011;8917;50.942;6.946;2023-04-19T11:04:04;7.47;;;4.17;;
17596;SDS011;8917;50.942;6.946;2023-04-19T11:06:31;6.10;;;3.30;;
17596;SDS011;8917;50.942;6.946;2023-04-19T11:08:58;5.27;;;3.00;;
17596;SDS011;8917;50.942;6.946;2023-04-19T11:11:28;3.43;;;2.90;;
17596;SDS011;8917;50.942;6.946;2023-04-19T11:13:59;3.83;;;3.07;;
17596;SDS011;8917;50.942;6.946;2023-04-19T11:16:26;4.13;;;3.43;;
17596;SDS011;8917;50.942;6.946;2023-04-19T11:18:53;4.00;;;3.37;;
17596;SDS011;8917;50.942;6.946;2023-04-19T11:21:22;5.33;;;3.70;;
17596;SDS011;8917;50.942;6.946;2023-04-19T11:24:04;4.90;;;3.67;;
17596;SDS011;8917;50.942;6.946;2023-04-19T11:26:32;5.30;;;3.50;;
17596;SDS011;8917;50.942;6.946;2023-04-19T11:28:59;5.57;;;3.30;;
17596;SDS011;8917;50.942;6.946;2023-04-19T11:31:26;4.80;;;3.67;;
17596;SDS011;8917;50.942;6.946;2023-04-19T11:33:54;5.57;;;3.10;;
17596;SDS011;8917;50.942;6.946;2023-04-19T11:36:22;4.33;;;3.27;;
17596;SDS011;8917;50.942;6.946;2023-04-19T11:38:50;3.33;;;3.03;;
17596;SDS011;8917;50.942;6.946;2023-04-19T11:41:18;3.53;;;3.10;;
17596;SDS011;8917;50.942;6.946;2023-04-19T11:43:45;3.87;;;3.00;;
17596;SDS011;8917;50.942;6.946;2023-04-19T11:46:13;4.53;;;3.43;;
17596;SDS011;8917;50.942;6.946;2023-04-19T11:48:48;5.07;;;3.00;;
17596;SDS011;8917;50.942;6.946;2023-04-19T11:51:16;4.57;;;3.27;;
17596;SDS011;8917;50.942;6.946;2023-04-19T11:53:45;3.23;;;2.80;;
17596;SDS011;8917;50.942;6.946;2023-04-19T11:56:12;3.53;;;2.77;;
17596;SDS011;8917;50.942;6.946;2023-04-19T11:58:41;5.07;;;2.83;;
17596;SDS011;8917;50.942;6.946;2023-04-19T12:01:10;3.57;;;2.87;;
17596;SDS011;8917;50.942;6.946;2023-04-19T12:03:39;5.83;;;2.93;;
17596;SDS011;8917;50.942;6.946;2023-04-19T12:06:09;4.53;;;2.77;;
17596;SDS011;8917;50.942;6.946;2023-04-19T12:08:37;4.30;;;2.70;;
17596;SDS011;8917;50.942;6.946;2023-04-19T12:11:06;3.53;;;2.50;;
17596;SDS011;8917;50.942;6.946;2023-04-19T12:13:33;5.63;;;2.90;;
17596;SDS011;8917;50.942;6.946;2023-04-19T12:16:01;4.07;;;2.17;;
17596;SDS011;8917;50.942;6.946;2023-04-19T12:18:40;3.60;;;2.47;;
17596;SDS011;8917;50.942;6.946;2023-04-19T12:21:09;3.30;;;2.20;;
17596;SDS011;8917;50.942;6.946;2023-04-19T12:23:37;3.50;;;2.73;;
17596;SDS011;8917;50.942;6.946;2023-04-19T12:26:06;3.33;;;2.33;;
17596;SDS011;8917;50.942;6.946;2023-04-19T12:28:33;3.37;;;2.73;;
17596;SDS011;8917;50.942;6.946;2023-04-19T12:31:01;4.33;;;2.20;;
17596;SDS011;8917;50.942;6.946;2023-04-19T12:33:28;3.17;;;2.40;;
17596;SDS011;8917;50.942;6.946;2023-04-19T12:35:55;2.87;;;2.50;;
17596;SDS011;8917;50.942;6.946;2023-04-19T12:38:22;6.77;;;2.20;;
17596;SDS011;8917;50.942;6.946;2023-04-19T12:40:49;5.40;;;4.30;;
17596;SDS011;8917;50.942;6.946;2023-04-19T12:43:18;3.87;;;2.53;;
17596;SDS011;8917;50.942;6.946;2023-04-19T12:45:45;5.53;;;2.50;;
17596;SDS011;8917;50.942;6.946;2023-04-19T12:48:13;2.40;;;2.20;;
17596;SDS011;8917;50.942;6.946;2023-04-19T12:50:40;2.60;;;2.40;;
17596;SDS011;8917;50.942;6.946;2023-04-19T12:53:09;3.43;;;2.70;;
17596;SDS011;8917;50.942;6.946;2023-04-19T12:55:36;5.20;;;2.83;;
17596;SDS011;8917;50.942;6.946;2023-04-19T12:58:03;4.30;;;2.37;;
17596;SDS011;8917;50.942;6.946;2023-04-19T13:00:32;4.10;;;2.30;;
17596;SDS011;8917;50.942;6.946;2023-04-19T13:02:59;4.97;;;2.60;;
17596;SDS011;8917;50.942;6.946;2023-04-19T13:05:27;6.97;;;3.40;;
17596;SDS011;8917;50.942;6.946;2023-04-19T13:07:54;2.53;;;2.33;;
17596;SDS011;8917;50.942;6.946;2023-04-19T13:10:21;4.03;;;2.43;;
17596;SDS011;8917;50.942;6.946;2023-04-19T13:12:48;5.63;;;2.77;;
17596;SDS011;8917;50.942;6.946;2023-04-19T13:15:16;3.27;;;2.60;;
17596;SDS011;8917;50.942;6.946;2023-04-19T13:17:44;7.77;;;2.60;;
17596;SDS011;8917;50.942;6.946;2023-04-19T13:20:12;3.27;;;2.70;;
17596;SDS011;8917;50.942;6.946;2023-04-19T13:22:39;6.53;;;4.00;;
17596;SDS011;8917;50.942;6.946;2023-04-19T13:25:06;2.97;;;2.60;;
17596;SDS011;8917;50.942;6.946;2023-04-19T13:27:34;4.83;;;2.80;;
17596;SDS011;8917;50.942;6.946;2023-04-19T13:30:01;3.00;;;2.70;;
17596;SDS011;8917;50.942;6.946;2023-04-19T13:32:28;6.50;;;2.67;;
17596;SDS011;8917;50.942;6.946;2023-04-19T13:34:57;3.00;;;2.60;;
17596;SDS011;8917;50.942;6.946;2023-04-19T13:37:24;3.40;;;2.47;;
17596;SDS011;8917;50.942;6.946;2023-04-19T13:39:52;4.40;;;2.57;;
17596;SDS011;8917;50.942;6.946;2023-04-19T13:42:19;2.77;;;2.43;;
17596;SDS011;8917;50.942;6.946;2023-04-19T13:44:47;4.10;;;2.87;;
17596;SDS011;8917;50.942;6.946;2023-04-19T13:47:14;4.57;;;2.50;;
17596;SDS011;8917;50.942;6.946;2023-04-19T13:49:41;4.47;;;2.50;;
17596;SDS011;8917;50.942;6.946;2023-04-19T13:52:11;5.67;;;2.97;;
17596;SDS011;8917;50.942;6.946;2023-04-19T13:54:38;5.27;;;3.37;;
17596;SDS011;8917;50.942;6.946;2023-04-19T13:57:05;4.27;;;3.00;;
17596;SDS011;8917;50.942;6.946;2023-04-19T13:59:32;3.93;;;2.90;;
17596;SDS011;8917;50.942;6.946;2023-04-19T14:02:01;4.83;;;3.00;;
17596;SDS011;8917;50.942;6.946;2023-04-19T14:04:28;4.73;;;2.53;;
17596;SDS011;8917;50.942;6.946;2023-04-19T14:06:56;3.10;;;2.80;;
17596;SDS011;8917;50.942;6.946;2023-04-19T14:09:24;3.40;;;2.60;;
17596;SDS011;8917;50.942;6.946;2023-04-19T14:11:52;4.07;;;2.80;;
17596;SDS011;8917;50.942;6.946;2023-04-19T14:14:19;3.33;;;3.00;;
17596;SDS011;8917;50.942;6.946;2023-04-19T14:16:46;4.50;;;3.20;;
17596;SDS011;8917;50.942;6.946;2023-04-19T14:19:13;4.00;;;2.93;;
17596;SDS011;8917;50.942;6.946;2023-04-19T14:21:49;3.92;;;2.50;;
17596;SDS011;8917;50.942;6.946;2023-04-19T14:24:16;3.40;;;2.63;;
17596;SDS011;8917;50.942;6.946;2023-04-19T14:26:43;3.25;;;2.67;;
17596;SDS011;8917;50.942;6.946;2023-04-19T14:29:10;3.35;;;3.05;;
17596;SDS011;8917;50.942;6.946;2023-04-19T14:31:38;4.55;;;3.30;;
17596;SDS011;8917;50.942;6.946;2023-04-19T14:34:05;6.68;;;3.30;;
17596;SDS011;8917;50.942;6.946;2023-04-19T14:36:32;5.43;;;2.92;;
17596;SDS011;8917;50.942;6.946;2023-04-19T14:39:01;5.05;;;3.00;;
17596;SDS011;8917;50.942;6.946;2023-04-19T14:41:28;4.78;;;2.75;;
17596;SDS011;8917;50.942;6.946;2023-04-19T14:43:55;4.63;;;2.92;;
17596;SDS011;8917;50.942;6.946;2023-04-19T14:46:22;3.75;;;2.83;;
17596;SDS011;8917;50.942;6.946;2023-04-19T14:48:49;2.83;;;2.63;;
17596;SDS011;8917;50.942;6.946;2023-04-19T14:51:17;4.13;;;3.75;;
17596;SDS011;8917;50.942;6.946;2023-04-19T14:53:44;4.18;;;2.95;;
17596;SDS011;8917;50.942;6.946;2023-04-19T14:56:12;5.82;;;2.97;;
17596;SDS011;8917;50.942;6.946;2023-04-19T14:58:39;4.57;;;2.97;;
17596;SDS011;8917;50.942;6.946;2023-04-19T15:01:10;3.13;;;2.80;;
17596;SDS011;8917;50.942;6.946;2023-04-19T15:03:37;2.97;;;2.78;;
17596;SDS011;8917;50.942;6.946;2023-04-19T15:06:05;3.47;;;2.90;;
17596;SDS011;8917;50.942;6.946;2023-04-19T15:08:32;3.63;;;2.70;;
17596;SDS011;8917;50.942;6.946;2023-04-19T15:11:00;4.68;;;2.72;;